createdAt,value
2022-09-26T00:04:29.081Z,63.63
2022-09-26T00:09:34.371Z,59.73
2022-09-26T00:14:36.794Z,58.09
2022-09-26T00:19:39.243Z,64.70
2022-09-26T00:24:41.713Z,64.56
2022-09-26T00:29:44.099Z,60.44
2022-09-26T00:34:46.498Z,57.40
2022-09-26T00:39:48.897Z,60.67
2022-09-26T00:44:54.558Z,66.78
2022-09-26T00:50:02.225Z,62.45
2022-09-26T00:55:06.126Z,58.04
2022-09-26T01:00:10.240Z,60.13
2022-09-26T01:05:14.410Z,66.60
2022-09-26T01:10:17.029Z,64.04
2022-09-26T01:16:13.564Z,60.28
2022-09-26T01:21:28.334Z,58.07
2022-09-26T01:26:34.265Z,63.29
2022-09-26T01:31:38.613Z,66.54
2022-09-26T01:36:44.442Z,60.98
2022-09-26T01:41:56.782Z,57.16
2022-09-26T01:47:00.135Z,61.03
2022-09-26T01:52:05.748Z,67.74
2022-09-26T01:57:11.001Z,62.49
2022-09-26T02:02:19.261Z,58.60
2022-09-26T02:07:26.028Z,59.09
2022-09-26T02:12:32.810Z,64.89
2022-09-26T02:17:39.562Z,64.69
2022-09-26T02:22:42.213Z,59.12
2022-09-26T02:27:44.627Z,58.74
2022-09-26T02:32:47.086Z,64.00
2022-09-26T02:37:49.504Z,65.72
2022-09-26T02:43:01.799Z,60.46
2022-09-26T02:48:14.125Z,57.65
2022-09-26T02:53:26.842Z,62.93
2022-09-26T02:58:38.834Z,66.46
2022-09-26T03:03:48.064Z,60.09
2022-09-26T03:08:51.855Z,57.68
2022-09-26T03:13:56.078Z,61.99
2022-09-26T03:19:01.292Z,67.35
2022-09-26T03:24:03.848Z,61.18
2022-09-26T03:29:06.506Z,57.69
2022-09-26T03:34:09.028Z,60.61
2022-09-26T03:39:11.637Z,67.21
2022-09-26T03:44:15.713Z,62.43
2022-09-26T03:49:18.146Z,59.75
2022-09-26T03:54:20.579Z,57.88
2022-09-26T03:59:23.035Z,62.93
2022-09-26T04:04:25.883Z,66.46
2022-09-26T04:09:28.377Z,60.78
2022-09-26T04:14:31.561Z,57.51
2022-09-26T04:19:33.992Z,62.59
2022-09-26T04:24:36.703Z,66.70
2022-09-26T04:29:39.163Z,61.11
2022-09-26T04:34:41.567Z,57.35
2022-09-26T04:39:43.954Z,60.49
2022-09-26T04:44:48.114Z,67.00
2022-09-26T04:49:50.612Z,64.09
2022-09-26T04:54:53.120Z,59.19
2022-09-26T05:00:14.368Z,57.92
2022-09-26T05:05:16.845Z,61.04
2022-09-26T05:10:19.433Z,68.35
2022-09-26T05:15:21.878Z,63.09
2022-09-26T05:20:24.577Z,58.83
2022-09-26T05:25:32.195Z,57.99
2022-09-26T05:30:35.027Z,62.11
2022-09-26T05:40:21.247Z,61.54
2022-09-26T05:45:23.794Z,57.21
2022-09-26T05:50:26.219Z,59.20
2022-09-26T05:55:29.290Z,63.98
2022-09-26T06:00:31.752Z,66.37
2022-09-26T06:05:34.611Z,58.43
2022-09-26T06:10:38.645Z,58.06
2022-09-26T06:15:43.132Z,60.94
2022-09-26T06:20:45.550Z,66.78
2022-09-26T06:25:48.018Z,61.54
2022-09-26T06:30:50.434Z,56.59
2022-09-26T06:35:55.756Z,59.70
2022-09-26T06:40:58.248Z,61.44
2022-09-26T06:46:00.929Z,66.12
2022-09-26T06:51:03.747Z,64.38
2022-09-26T06:56:06.501Z,58.80
2022-09-26T07:01:09.140Z,56.04
2022-09-26T07:06:11.661Z,58.43
2022-09-26T07:16:37.452Z,64.65
2022-09-26T07:21:39.949Z,62.15
2022-09-26T07:26:42.403Z,54.31
2022-09-26T07:31:45.407Z,54.78
2022-09-26T07:36:47.871Z,56.05
2022-09-26T07:41:50.458Z,55.96
2022-09-26T07:46:55.850Z,55.27
2022-09-26T07:52:00.574Z,55.23
2022-09-26T07:57:04.811Z,54.03
2022-09-26T08:02:20.782Z,59.28
2022-09-26T08:07:24.532Z,52.90
2022-09-26T08:12:27.110Z,55.24
2022-09-26T08:17:32.428Z,52.78
2022-09-26T08:22:34.862Z,47.94
2022-09-26T08:27:37.327Z,48.85
2022-09-26T08:32:39.736Z,50.36
2022-09-26T08:37:42.134Z,51.76
2022-09-26T08:42:45.972Z,51.34
2022-09-26T08:47:53.227Z,52.05
2022-09-26T08:53:01.440Z,51.71
2022-09-26T08:58:08.338Z,51.43
2022-09-26T09:03:12.901Z,52.38
2022-09-26T09:08:36.790Z,53.49
2022-09-26T09:13:46.108Z,52.76
2022-09-26T09:18:48.641Z,58.19
2022-09-26T09:23:57.618Z,49.08
2022-09-26T09:29:01.001Z,47.43
2022-09-26T09:34:06.726Z,48.01
2022-09-26T09:39:13.401Z,48.24
2022-09-26T09:44:25.481Z,48.79
2022-09-26T09:49:28.023Z,49.49
2022-09-26T09:54:33.399Z,50.29
2022-09-26T09:59:38.757Z,49.86
2022-09-26T10:04:44.368Z,52.87
2022-09-26T10:09:51.763Z,51.68
2022-09-26T10:15:17.294Z,52.82
2022-09-26T10:20:40.741Z,51.21
2022-09-26T10:25:47.101Z,51.38
2022-09-26T10:30:50.629Z,51.88
2022-09-26T10:35:59.528Z,53.37
2022-09-26T10:41:03.408Z,52.33
2022-09-26T10:46:06.130Z,52.21
2022-09-26T10:51:09.597Z,52.38
2022-09-26T10:56:16.847Z,52.41
2022-09-26T11:01:22.823Z,51.97
2022-09-26T11:06:28.218Z,50.46
2022-09-26T11:11:33.675Z,50.37
2022-09-26T11:16:38.675Z,49.32
2022-09-26T11:21:42.138Z,48.34
2022-09-26T11:26:49.074Z,49.42
2022-09-26T11:31:52.015Z,47.00
2022-09-26T11:36:58.485Z,48.39
2022-09-26T11:42:03.976Z,47.98
2022-09-26T11:47:09.446Z,49.51
2022-09-26T11:52:14.465Z,47.06
2022-09-26T11:57:21.418Z,46.36
2022-09-26T12:02:26.912Z,46.94
2022-09-26T12:07:32.766Z,47.82
2022-09-26T12:12:41.811Z,46.42
2022-09-26T12:17:47.815Z,48.04
2022-09-26T12:22:55.967Z,46.15
2022-09-26T12:28:09.129Z,45.45
2022-09-26T12:33:14.648Z,45.08
2022-09-26T12:38:20.434Z,47.58
2022-09-26T12:43:31.461Z,46.30
2022-09-26T12:48:37.751Z,46.26
2022-09-26T12:53:43.074Z,47.49
2022-09-26T12:59:06.943Z,46.02
2022-09-26T13:04:11.733Z,45.91
2022-09-26T13:09:15.972Z,45.72
2022-09-26T13:14:27.525Z,45.67
2022-09-26T13:19:34.582Z,46.02
2022-09-26T13:24:40.957Z,46.46
2022-09-26T13:29:46.142Z,46.49
2022-09-26T13:34:51.677Z,46.24
2022-09-26T13:39:59.926Z,46.67
2022-09-26T13:45:05.278Z,46.61
2022-09-26T13:50:12.591Z,46.56
2022-09-26T13:55:19.234Z,46.67
2022-09-26T14:00:29.787Z,47.51
2022-09-26T14:05:35.119Z,48.45
2022-09-26T14:10:39.670Z,49.05
2022-09-26T14:15:45.050Z,49.13
2022-09-26T14:20:55.002Z,49.60
2022-09-26T14:26:04.830Z,50.13
2022-09-26T14:31:11.402Z,51.26
2022-09-26T14:36:16.794Z,50.94
2022-09-26T14:41:20.775Z,48.42
2022-09-26T14:46:24.285Z,46.13
2022-09-26T14:51:30.357Z,46.36
2022-09-26T14:56:41.172Z,44.68
2022-09-26T15:01:44.385Z,44.14
2022-09-26T15:06:48.764Z,44.55
2022-09-26T15:11:55.153Z,44.82
2022-09-26T15:16:59.086Z,44.74
2022-09-26T15:22:04.523Z,45.59
2022-09-26T15:27:11.018Z,47.58
2022-09-26T15:32:19.915Z,49.13
2022-09-26T15:37:23.443Z,49.85
2022-09-26T15:42:28.822Z,50.83
2022-09-26T15:47:31.715Z,51.47
2022-09-26T15:52:35.139Z,52.41
2022-09-26T15:57:37.627Z,53.35
2022-09-26T16:02:40.920Z,54.22
2022-09-26T16:07:47.828Z,55.69
2022-09-26T16:12:50.340Z,57.06
2022-09-26T16:17:53.987Z,58.25
2022-09-26T16:23:04.360Z,59.32
2022-09-26T16:28:10.260Z,60.11
2022-09-26T16:33:15.980Z,60.68
2022-09-26T16:38:22.496Z,61.29
2022-09-26T16:43:27.126Z,61.69
2022-09-26T16:48:32.482Z,62.05
2022-09-26T16:53:34.971Z,67.57
2022-09-26T16:58:37.404Z,71.47
2022-09-26T17:03:42.357Z,64.23
2022-09-26T17:08:44.744Z,59.68
2022-09-26T17:13:49.404Z,56.69
2022-09-26T17:18:51.840Z,59.38
2022-09-26T17:23:54.332Z,62.99
2022-09-26T17:28:58.063Z,67.99
2022-09-26T17:34:01.963Z,61.99
2022-09-26T17:39:07.699Z,57.32
2022-09-26T17:44:10.200Z,57.87
2022-09-26T17:49:13.659Z,59.75
2022-09-26T17:54:17.589Z,61.03
2022-09-26T17:59:23.174Z,63.57
2022-09-26T18:04:27.239Z,68.92
2022-09-26T18:09:32.321Z,61.84
2022-09-26T18:14:35.379Z,56.73
2022-09-26T18:19:38.177Z,57.75
2022-09-26T18:24:41.475Z,59.77
2022-09-26T18:29:47.222Z,60.47
2022-09-26T18:34:49.651Z,61.21
2022-09-26T18:39:55.737Z,63.32
2022-09-26T18:45:04.237Z,69.79
2022-09-26T18:50:07.082Z,62.58
2022-09-26T18:55:19.904Z,57.33
2022-09-26T19:00:22.334Z,57.78
2022-09-26T19:05:26.164Z,59.57
2022-09-26T19:10:29.489Z,60.77
2022-09-26T19:15:32.055Z,61.37
2022-09-26T19:20:34.521Z,61.81
2022-09-26T19:25:37.243Z,67.26
2022-09-26T19:30:39.902Z,69.16
2022-09-26T19:35:42.746Z,62.10
2022-09-26T19:40:48.831Z,56.93
2022-09-26T19:45:53.565Z,58.12
2022-09-26T19:50:56.127Z,60.11
2022-09-26T19:56:00.334Z,63.07
2022-09-26T20:01:11.573Z,68.27
2022-09-26T20:06:46.357Z,61.38
2022-09-26T20:11:48.862Z,56.86
2022-09-26T20:17:03.103Z,59.01
2022-09-26T20:22:07.406Z,61.93
2022-09-26T20:27:15.239Z,66.89
2022-09-26T20:32:17.727Z,59.95
2022-09-26T20:37:21.124Z,56.63
2022-09-26T20:42:27.942Z,58.92
2022-09-26T20:47:31.125Z,60.34
2022-09-26T20:52:33.587Z,62.15
2022-09-26T20:57:36.206Z,68.26
2022-09-26T21:02:39.237Z,61.42
2022-09-26T21:07:41.942Z,57.25
2022-09-26T21:12:44.330Z,59.78
2022-09-26T21:17:47.351Z,66.72
2022-09-26T21:22:50.436Z,62.75
2022-09-26T21:27:57.245Z,58.96
2022-09-26T21:33:00.092Z,57.86
2022-09-26T21:38:02.680Z,60.60
2022-09-26T21:43:08.854Z,64.61
2022-09-26T21:48:12.240Z,66.25
2022-09-26T21:53:16.904Z,60.69
2022-09-26T21:58:22.382Z,57.38
2022-09-26T22:03:24.763Z,60.26
2022-09-26T22:08:27.187Z,64.06
2022-09-26T22:13:29.902Z,67.43
2022-09-26T22:18:32.933Z,62.60
2022-09-26T22:23:35.509Z,59.88
2022-09-26T22:28:38.007Z,57.76
2022-09-26T22:33:43.465Z,61.22
2022-09-26T22:38:46.239Z,67.26
2022-09-26T22:43:49.187Z,63.15
2022-09-26T22:48:51.855Z,59.18
2022-09-26T22:53:54.390Z,58.02
2022-09-26T22:58:56.821Z,61.52
2022-09-26T23:04:00.305Z,66.97
2022-09-26T23:09:02.783Z,61.68
2022-09-26T23:14:05.225Z,57.88
2022-09-26T23:19:07.668Z,60.80
2022-09-26T23:24:10.067Z,66.49
2022-09-26T23:29:13.252Z,62.15
2022-09-26T23:34:15.684Z,58.95
2022-09-26T23:39:18.663Z,58.56
2022-09-26T23:44:21.098Z,63.50
2022-09-26T23:49:23.527Z,66.38
2022-09-26T23:54:25.923Z,61.40
2022-09-26T23:59:28.377Z,57.96
